Gangu, China
Current Conditions -  °F | °C
As of 7:00 PM on Saturday 22 Nov 2014 (Local Time) from ZLLL Reporting Station
Overcast Overcast  
Wind Chill: 28°   Ceiling: 4600
Heat Index: 36°   Visibility: 6mi
Dew Point: 19°   Wind: 11mph
Humidity: 52%   Direction: 40°NE
Pressure: 30.12"   Gusts: NA
Location:  34.75°N, 105.2°E
Report Text: ZLLL 221100Z 04005MPS 9999 OVC046 02/M07 Q1020 NOSIG
Loading
Personal Weather Stations






























Interactive Weather Map New forecast layout! Learn more

10-Day Weather Forecast

Advertisements
Track Severe Weather on mobile